Decoded Metar for ESNQ (KIRUNA in SWEDEN) (IATA:KRN) | Meteo·Mobile Aviation Weather
aviador You're here:

ESNQ Decoded Metar

KIRUNA in SWEDEN
Report Time2019-03-22 14:20:00
UTC Time2019-03-22 14:42:05
Flight Rules vfr VFR
Wind220° at 17 kt
W.Decomp.*RWY 21: 17.0 kt HW 0.9 kt RCW
W.Rank220° ranks 2
Current wind is above 220° avg. (7.1)
Visibility9999 m
Phenomena:N/A
Clouds:N/A
Expected CloudBase > 2,800 ft AGL from Temp-Dew spread
CeilingNone
Temp00°C (ISA -12)
Dew Point-7°C (60% RH)
AAT-8.9°C
QNH1011 hPa
Density Alt138 ft
Elevation1,483 ft
Report Wrong Elevation
Raw Report
ESNQ 221420Z 22017KT CAVOK M00/M07 Q1011=

Extra information for ESNQ:More info

Metar Taf Metar & Taf Last 4 Metars F.Rules Stats Wind Profile Meteogram Temp Stats Airport Information Weather charts Add Link Nearby VenuesMetar ALERT Operation Metar Decoded Social comments